Ludwig Olsen

Olheiro-Chefe - Atvidaberg
25 Nov 2027
Quinta-feira
Processo

Personalidade

Adaptabilidade (9) Ambição (3) Controvérsia (19) Lealdade (10) Pressão (3) Profissionalismo (3) Espírito Esportivo (4) Temperamento (3)

Perfil

Estilo de Treinamento Democrático
Licença Nacional B
Determinação 7
Gestão de Pessoas 5
Motivação 10
Disciplina 8
Satisfação no Trabalho
87%
Fadiga
0%
Função Olheiro-Chefe
Salário 35.3K p/s
Contrato 14.03.2030

Desempenho

Comportamento Bom
Eficácia do Treinamento
20%
Desenvolvimento do Jogador
15%
Prevenção de Lesões
40%
Implementação Tática
15%

Eventos Recentes

Participou de uma reunião de recrutamento agora
Participou de uma reunião de recrutamento agora
Participou de uma reunião de recrutamento 7d atrás
Participou de uma reunião de recrutamento 7d atrás
Participou de uma reunião de recrutamento 7d atrás
Participou de uma reunião de recrutamento 7d atrás
Participou de uma reunião de recrutamento 14d atrás
Participou de uma reunião de recrutamento 14d atrás

Monitorando agora

98
Jogador Clube Status Habilidade Confiança Observado Última observação Último voto
Ronan Hale Gillingham Ativo 124 / 109 40% 1 15.07.2027 -
Melwin Hedman IFK Goteborg Ativo 75 / 94 51% 1 02.02.2027 -
Daniel Kyerewaa Reading Ativo 127 / 109 40% 1 06.01.2027 Mais informações
Aaron Drinan Swindon Town Ativo 120 / 92 40% 1 06.01.2027 Mais informações
Chem Campbell Stevenage Ativo 124 / 107 40% 1 05.01.2027 Mais informações
Paddy Lane Reading Ativo 107 / 88 40% 1 23.12.2026 -
Petr Juliš Slovan Liberec Ativo 92 / 129 40% 1 23.12.2026 -
Ollie Tanner Cardiff City Ativo 113 / 109 40% 1 21.12.2026 -
Zak Swanson Bradford City Ativo 117 / 107 40% 1 19.12.2026 -
Doğucan Haspolat Westerlo Ativo 142 / 140 40% 1 12.12.2026 -
Job Ochieng Real Sociedad Ativo 118 / 110 40% 1 12.12.2026 -
Adolfo Muñoz Ruch Ativo 115 / 106 40% 1 11.12.2026 -
Berna CSKA 1948 Ativo 108 / 134 40% 1 11.12.2026 -
Tomás González Piast Ativo 95 / 119 40% 3 10.12.2026 -
Alexis Alégué Zbrojovka Brno Ativo 141 / 109 40% 1 10.12.2026 -
Leo Goglichidze Rodina Ativo 112 / 101 40% 1 08.12.2026 -
Matyáš Kozák Teplice Ativo 120 / 106 40% 1 07.12.2026 -
Maicon Levski Ativo 144 / 143 40% 1 07.12.2026 -
Stephen Humphrys Bradford City Ativo 110 / 99 40% 1 14.11.2026 -
Krisztofer Horváth Ujpest Ativo 113 / 131 40% 1 14.11.2026 -
Jordan Roberts Stevenage Ativo 126 / 118 40% 1 13.11.2026 -
Alexander Fesshaie Helsingborg Ativo 115 / 111 40% 2 12.11.2026 -
Albin Andersson Falkenberg Ativo 95 / 101 40% 1 12.11.2026 -
Rajmund Molnár Pogon Ativo 112 / 108 40% 1 11.11.2026 -
Kwadwo Duah Ludogorets Ativo 144 / 132 40% 1 11.11.2026 -
Omar Faraj Halmstad Ativo 103 / 119 40% 3 08.11.2026 -
Agustín Módica Gimnasia y Esgrima Ativo 118 / 117 40% 1 08.11.2026 -
Max Fenger IFK Goteborg Ativo 137 / 116 40% 3 05.11.2026 -
Leonardo Campana New England Revolution Ativo 120 / 144 40% 1 04.11.2026 -
Frederik Ihler IF Elfsborg Ativo 126 / 130 40% 1 04.11.2026 -
Danylo Kravchuk LNZ Ativo 115 / 103 40% 1 03.11.2026 -
Kamran Aliev SKA Khabarovsk Ativo 98 / 94 40% 1 02.11.2026 -
Ola Brynhildsen Bodo/Glimt Ativo 140 / 123 40% 1 02.11.2026 -
David Ankeye Zeleznicar Pancevo Ativo 100 / 125 40% 2 31.10.2026 -
Mustapha Sangaré Levski Ativo 122 / 109 40% 1 31.10.2026 -
Patrik Demjén MTK Budapest Ativo 110 / 96 40% 1 30.10.2026 -
Lucas Bruera Carabobo Ativo 134 / 135 40% 1 30.10.2026 -
Andreas Gruber DAC Dunajska Streda Ativo 103 / 136 40% 1 28.10.2026 -
Ruslan Neshcheret Dynamo Kyiv Ativo 99 / 101 40% 1 28.10.2026 -
Richard Ludha MFK Skalica Ativo 129 / 124 40% 1 28.10.2026 -
Francisco Meixedo Feirense Ativo 132 / 119 40% 2 27.10.2026 -
Johan Brattberg Helsingborg Ativo 118 / 111 40% 1 27.10.2026 -
Antonio Đaković HNK Vukovar 1991 Ativo 116 / 107 40% 1 26.10.2026 -
Đorđe Nikolić Cukaricki Ativo 122 / 117 40% 1 24.10.2026 -
Metod Jurhar Voluntari Ativo 109 / 103 40% 1 24.10.2026 -
Tomás Chancalay Minnesota United FC Ativo 145 / 109 40% 2 23.10.2026 -
Tio Cipot NK Maribor Ativo 114 / 109 40% 1 23.10.2026 -
Abdallah Gning Banik Ostrava Ativo 126 / 119 40% 1 19.10.2026 -
Stefano Vecchia BK Hacken Ativo 104 / 108 40% 1 18.10.2026 -
Kristian Strømland Lien Djurgarden Ativo 119 / 124 40% 1 18.10.2026 -
Breel Embolo Atlanta United FC Ativo 150 / 135 40% 2 16.10.2026 -
Donis Avdijaj Wolfsberger AC Ativo 115 / 100 40% 1 16.10.2026 -
Mattias Lamhauge Stromsgodset Ativo 101 / 100 40% 1 15.10.2026 -
Duncan McGuire Houston Dynamo Ativo 116 / 117 40% 1 15.10.2026 -
Anders Dreyer San Diego Football Club Ativo 136 / 130 40% 1 12.10.2026 -
Conrad Wallem Austria Wien Ativo 127 / 143 40% 1 12.10.2026 -
Suleiman Camara Slovan Bratislava Ativo 124 / 104 40% 1 11.10.2026 -
Yuber Quiñónes Deportivo Pereira Ativo 127 / 112 40% 1 11.10.2026 -
Vegard Erlien Tromso Ativo 134 / 120 40% 1 10.10.2026 -
Tomáš Ostrák St. Louis CITY SC Ativo 111 / 113 40% 1 10.10.2026 -
Peter Christiansen Viking Ativo 112 / 130 40% 1 09.10.2026 -
DeJuan Jones San Jose Earthquakes Ativo 120 / 102 40% 1 05.10.2026 -
Marcelo Saracchi Houston Dynamo Ativo 130 / 132 40% 1 05.10.2026 -
Bo Hegland Djurgarden Ativo 119 / 113 40% 1 04.10.2026 -
Sam Surridge Nashville SC Ativo 144 / 125 40% 1 04.10.2026 -
Carl Björk GIF Sundsvall Ativo 111 / 98 40% 1 02.10.2026 -
Myrto Uzuni Austin FC Ativo 147 / 127 40% 1 02.10.2026 -
Adam Akimey Helsingborg Ativo 109 / 106 40% 2 30.09.2026 -
Sveinn Aron Guðjohnsen Vikingur Ativo 126 / 116 40% 1 30.09.2026 -
Everton Bala Levski Ativo 134 / 106 40% 1 28.09.2026 -
Enzo Avaro Odd Ativo 101 / 98 40% 1 27.09.2026 -
Tadeo Allende Inter Miami CF Ativo 136 / 126 40% 1 27.09.2026 -
Auwalu Ali Malam Kano Pillars Ativo 109 / 89 40% 1 26.09.2026 -
Róbert Polievka MTK Budapest Ativo 134 / 94 40% 1 26.09.2026 -
Marcus Ingvartsen San Diego Football Club Ativo 117 / 136 40% 1 24.09.2026 -
Marcus Browne AFC Wimbledon Ativo 100 / 88 40% 1 23.09.2026 -
Rafael Navarro St. Louis CITY SC Ativo 129 / 136 40% 1 23.09.2026 -
Kelvin Yeboah Minnesota United FC Ativo 139 / 107 40% 1 22.09.2026 -
Jeong Sang-Bin St. Louis CITY SC Ativo 101 / 122 40% 1 22.09.2026 -
Anthony Olusanya Kalmar FF Ativo 104 / 94 40% 2 21.09.2026 -
Shuaibu Ibrahim Wikki Tourists Ativo 83 / 103 40% 1 21.09.2026 -
Joseph Atule Barau Ativo 112 / 109 40% 2 20.09.2026 -
Ajdin Zeljković Halmstad Ativo 93 / 95 40% 1 20.09.2026 -
Dániel Lukács Puskas Akademia Ativo 102 / 99 40% 1 19.09.2026 -
Gonzalo Berterame Viborg Ativo 98 / 124 40% 1 17.09.2026 -
Samuel Anakwe Remo Stars Ativo 72 / 116 40% 1 16.09.2026 -
Kévin Denkey FC Cincinnati Ativo 106 / 128 40% 1 12.09.2026 -
Brayan Ceballos CF Montreal Ativo 132 / 120 40% 1 12.09.2026 -
Timo Baumgartl St. Louis CITY SC Ativo 138 / 120 40% 1 12.09.2026 -
Timo Werner San Jose Earthquakes Ativo 140 / 112 40% 1 10.09.2026 -
Mikkel Desler Austin FC Ativo 140 / 123 40% 1 10.09.2026 -
Ethan Laird Birmingham Ativo 130 / 125 40% 1 10.09.2026 -
Ammar Ramadan DAC Dunajska Streda Ativo 141 / 121 40% 1 08.09.2026 -
Prince Owusu CF Montreal Ativo 115 / 130 40% 1 08.09.2026 -
Taha Ayari AIK Ativo 117 / 123 40% 1 07.09.2026 -
Enzo Giménez Queretaro Ativo 143 / 115 40% 1 02.08.2026 -
Gabriel Jesus Barcelona Ativo 172 / 164 40% 1 02.08.2026 -
Dayne St. Clair Inter Miami CF Ativo 144 / 107 40% 1 02.08.2026 -